Terminal Aerodrome Forecast
Issued by NWS Jackson, MS

Home | Current Version | Previous Version | Text Only | Print | Product List | Glossary On
Versions: 1 2 3 4 5 6 7 8 9 10 11 12 13 14
000
FTUS44 KJAN 161000 AAA
TAFGWO
TAF AMD
KGWO 161051Z 1611/1706 36003KT P6SM -RA BKN100 OVC250
     FM161500 01006KT P6SM VCSH SCT060 OVC120
     FM170000 01003KT P6SM SCT250=

USA.gov is the U.S. government's official web portal to all federal, state and local government web resources and services.